createdAt,value
2019-01-06T00:01:29.865Z,99.90
2019-01-06T00:04:18.625Z,98.20
2019-01-06T00:07:03.717Z,99.20
2019-01-06T00:09:42.724Z,98.60
2019-01-06T00:12:19.154Z,99.90
2019-01-06T00:14:55.334Z,99.90
2019-01-06T00:17:34.707Z,99.60
2019-01-06T00:20:05.814Z,99.90
2019-01-06T00:22:38.859Z,99.90
2019-01-06T00:25:25.314Z,99.90
2019-01-06T00:27:55.797Z,99.90
2019-01-06T00:30:26.222Z,99.90
2019-01-06T00:33:14.738Z,99.90
2019-01-06T00:35:48.104Z,99.90
2019-01-06T00:38:18.538Z,99.90
2019-01-06T00:40:48.949Z,99.90
2019-01-06T00:43:35.322Z,99.90
2019-01-06T00:46:21.953Z,99.90
2019-01-06T00:49:08.392Z,99.90
2019-01-06T00:51:55.267Z,99.90
2019-01-06T00:54:34.855Z,99.90
2019-01-06T00:57:11.086Z,99.90
2019-01-06T00:59:41.533Z,99.90
2019-01-06T01:02:28.276Z,99.90
2019-01-06T01:04:58.642Z,99.90
2019-01-06T01:07:35.153Z,99.90
2019-01-06T01:10:23.725Z,99.90
2019-01-06T01:13:08.885Z,99.90
2019-01-06T01:15:42.143Z,99.90
2019-01-06T01:18:18.304Z,99.90
2019-01-06T01:21:03.883Z,99.90
2019-01-06T01:23:46.200Z,99.90
2019-01-06T01:26:22.397Z,99.90
2019-01-06T01:28:55.595Z,99.90
2019-01-06T01:31:42.333Z,99.90
2019-01-06T01:34:18.628Z,99.90
2019-01-06T01:37:05.017Z,99.90
2019-01-06T01:39:37.845Z,99.90
2019-01-06T01:42:20.259Z,99.90
2019-01-06T01:45:07.158Z,99.90
2019-01-06T01:47:53.946Z,99.90
2019-01-06T01:50:42.373Z,99.90
2019-01-06T01:53:28.989Z,99.90
2019-01-06T01:55:59.414Z,99.90
2019-01-06T01:58:38.302Z,99.90
2019-01-06T02:01:14.410Z,99.90
2019-01-06T02:03:47.302Z,99.90
2019-01-06T02:06:35.760Z,99.90
2019-01-06T02:09:23.692Z,99.90
2019-01-06T02:11:54.120Z,99.90
2019-01-06T02:14:24.638Z,99.90
2019-01-06T02:17:06.841Z,99.90
2019-01-06T02:19:55.462Z,99.90
2019-01-06T02:22:25.866Z,99.90
2019-01-06T02:24:56.241Z,99.90
2019-01-06T02:27:42.835Z,99.90
2019-01-06T02:30:13.369Z,99.90
2019-01-06T02:32:52.721Z,99.90
2019-01-06T02:35:23.118Z,99.90
2019-01-06T02:37:56.529Z,99.90
2019-01-06T02:40:32.926Z,99.90
2019-01-06T02:43:19.370Z,99.90
2019-01-06T02:45:49.769Z,99.90
2019-01-06T02:48:32.340Z,99.90
2019-01-06T02:51:19.025Z,99.90
2019-01-06T02:53:55.348Z,99.90
2019-01-06T02:56:28.374Z,99.90
2019-01-06T02:59:14.656Z,99.90
2019-01-06T03:01:50.725Z,99.90
2019-01-06T03:04:37.091Z,99.90
2019-01-06T03:07:19.446Z,99.90
2019-01-06T03:09:52.545Z,99.90
2019-01-06T03:12:25.569Z,99.90
2019-01-06T03:15:13.902Z,99.90
2019-01-06T03:17:49.821Z,99.90
2019-01-06T03:20:29.594Z,99.90
2019-01-06T03:23:02.681Z,99.90
2019-01-06T03:25:49.562Z,99.90
2019-01-06T03:28:36.241Z,99.90
2019-01-06T03:31:06.620Z,99.90
2019-01-06T03:33:39.799Z,99.90
2019-01-06T03:36:16.008Z,99.90
2019-01-06T03:39:04.338Z,99.90
2019-01-06T03:41:43.355Z,99.90
2019-01-06T03:44:14.106Z,99.90
2019-01-06T03:46:44.571Z,99.90
2019-01-06T03:49:23.902Z,99.90
2019-01-06T03:51:54.284Z,99.90
2019-01-06T03:54:40.989Z,99.00
2019-01-06T03:57:17.280Z,98.20
2019-01-06T04:00:01.005Z,99.90
2019-01-06T04:02:43.706Z,99.40
2019-01-06T04:05:23.240Z,96.00
2019-01-06T04:08:09.746Z,93.90
2019-01-06T04:10:40.249Z,92.10
2019-01-06T04:13:19.646Z,95.40
2019-01-06T04:16:08.003Z,94.10
2019-01-06T04:18:54.490Z,94.70
2019-01-06T04:21:39.947Z,96.90
2019-01-06T04:24:13.335Z,97.00
2019-01-06T04:27:01.577Z,98.30
2019-01-06T04:29:35.005Z,98.40
2019-01-06T04:32:20.269Z,98.10
2019-01-06T04:35:07.026Z,96.70
2019-01-06T04:37:49.669Z,99.10
2019-01-06T04:40:36.045Z,95.60
2019-01-06T04:43:06.488Z,96.80
2019-01-06T04:45:39.787Z,95.50
2019-01-06T04:48:26.443Z,95.80
2019-01-06T04:51:05.994Z,96.70
2019-01-06T04:53:36.372Z,96.10
2019-01-06T04:56:15.566Z,94.10
2019-01-06T04:59:03.948Z,94.00
2019-01-06T05:01:50.270Z,90.50
2019-01-06T05:04:36.553Z,92.50
2019-01-06T05:07:07.047Z,91.80
2019-01-06T05:09:43.606Z,88.60
2019-01-06T05:12:13.964Z,92.00
2019-01-06T05:14:59.141Z,70.30
2019-01-06T05:17:47.672Z,84.50
2019-01-06T05:20:20.739Z,83.60
2019-01-06T05:22:53.766Z,89.70
2019-01-06T05:25:24.193Z,89.70
2019-01-06T05:27:57.247Z,91.70
2019-01-06T05:30:43.957Z,86.90
2019-01-06T05:33:26.468Z,90.10
2019-01-06T05:36:14.857Z,93.10
2019-01-06T05:38:47.932Z,92.60
2019-01-06T05:41:27.033Z,90.00
2019-01-06T05:44:15.592Z,91.20
2019-01-06T05:46:49.435Z,91.00
2019-01-06T05:49:28.756Z,93.80
2019-01-06T05:51:59.152Z,91.80
2019-01-06T05:54:45.689Z,93.60
2019-01-06T05:57:31.232Z,91.80
2019-01-06T06:00:10.581Z,93.20
2019-01-06T06:02:43.892Z,92.30
2019-01-06T06:05:17.236Z,91.40
2019-01-06T06:07:56.488Z,91.40
2019-01-06T06:10:42.671Z,91.30
2019-01-06T06:13:13.041Z,89.00
2019-01-06T06:15:59.401Z,91.00
2019-01-06T06:18:32.720Z,90.50
2019-01-06T06:21:03.108Z,91.90
2019-01-06T06:23:36.401Z,91.90
2019-01-06T06:26:15.416Z,91.50
2019-01-06T06:28:48.730Z,91.30
2019-01-06T06:31:19.100Z,90.00
2019-01-06T06:33:49.500Z,85.70
2019-01-06T06:36:37.814Z,89.10
2019-01-06T06:39:11.339Z,91.90
2019-01-06T06:41:57.765Z,89.70
2019-01-06T06:44:28.214Z,90.50
2019-01-06T06:46:58.680Z,93.10
2019-01-06T06:49:46.946Z,94.40
2019-01-06T06:52:17.340Z,93.90
2019-01-06T06:54:53.695Z,91.00
2019-01-06T06:58:16.041Z,92.00
2019-01-06T07:01:04.198Z,91.80
2019-01-06T07:03:58.282Z,78.70
2019-01-06T07:06:45.373Z,79.50
2019-01-06T07:09:21.547Z,76.40
2019-01-06T07:12:06.623Z,72.90
2019-01-06T07:14:45.884Z,76.10
2019-01-06T07:17:47.661Z,76.20
2019-01-06T07:20:23.593Z,73.10
2019-01-06T07:22:53.979Z,67.00
2019-01-06T07:25:27.148Z,67.50
2019-01-06T07:28:06.686Z,61.30
2019-01-06T07:30:45.858Z,63.80
2019-01-06T07:33:32.332Z,59.00
2019-01-06T07:36:21.222Z,62.20
2019-01-06T07:39:03.452Z,60.20
2019-01-06T07:41:33.891Z,49.30
2019-01-06T07:44:13.079Z,54.10
2019-01-06T07:47:00.137Z,57.40
2019-01-06T07:49:33.225Z,61.60
2019-01-06T07:52:03.656Z,61.90
2019-01-06T07:54:34.067Z,70.70
2019-01-06T07:57:10.436Z,71.10
2019-01-06T07:59:56.629Z,57.30
2019-01-06T08:02:35.393Z,57.60
2019-01-06T08:05:06.791Z,59.10
2019-01-06T08:07:39.814Z,56.30
2019-01-06T08:10:22.113Z,54.70
2019-01-06T08:13:08.546Z,58.30
2019-01-06T08:15:45.178Z,59.10
2019-01-06T08:18:15.582Z,56.50
2019-01-06T08:20:45.974Z,44.40
2019-01-06T08:23:16.377Z,46.70
2019-01-06T08:26:01.651Z,32.50
2019-01-06T08:28:47.135Z,37.00
2019-01-06T08:31:29.169Z,24.30
2019-01-06T08:34:05.297Z,15.30
2019-01-06T08:36:44.649Z,13.20
2019-01-06T08:39:31.052Z,7.50
2019-01-06T08:42:07.406Z,13.40
2019-01-06T08:44:49.775Z,15.70
2019-01-06T08:47:25.586Z,5.30
2019-01-06T08:50:01.721Z,11.00
2019-01-06T08:52:38.031Z,13.20
2019-01-06T08:55:24.529Z,13.20
2019-01-06T08:58:00.928Z,23.30
2019-01-06T09:00:31.307Z,8.30
2019-01-06T09:03:07.452Z,1.00
2019-01-06T09:05:52.737Z,1.00
2019-01-06T09:08:39.220Z,2.30
2019-01-06T09:11:09.873Z,1.00
2019-01-06T09:13:56.229Z,1.00
2019-01-06T09:16:42.298Z,7.20
2019-01-06T09:19:29.306Z,2.80
2019-01-06T09:22:05.734Z,1.00
2019-01-06T09:24:45.169Z,1.00
2019-01-06T09:27:18.459Z,1.00
2019-01-06T09:30:03.741Z,1.00
2019-01-06T09:32:36.814Z,1.00
2019-01-06T09:35:22.374Z,1.00
2019-01-06T09:38:08.969Z,1.00
2019-01-06T09:40:51.397Z,1.00
2019-01-06T09:43:38.097Z,1.00
2019-01-06T09:46:08.464Z,1.00
2019-01-06T09:48:50.852Z,1.00
2019-01-06T09:51:24.211Z,1.00
2019-01-06T09:53:57.583Z,1.00
2019-01-06T09:56:33.953Z,1.00
2019-01-06T09:59:20.481Z,1.00
2019-01-06T10:01:52.795Z,1.00
2019-01-06T10:04:38.012Z,1.00
2019-01-06T10:07:11.446Z,1.00
2019-01-06T10:09:53.737Z,1.00
2019-01-06T10:12:24.133Z,1.00
2019-01-06T10:14:57.394Z,1.00
2019-01-06T10:17:43.774Z,1.00
2019-01-06T10:20:23.845Z,1.00
2019-01-06T10:23:08.989Z,1.00
2019-01-06T10:25:57.326Z,1.00
2019-01-06T10:28:27.942Z,1.00
2019-01-06T10:31:01.113Z,1.00
2019-01-06T10:33:40.248Z,1.00
2019-01-06T10:36:16.660Z,1.00
2019-01-06T10:38:56.087Z,1.00
2019-01-06T10:41:35.571Z,1.00
2019-01-06T10:44:22.229Z,1.00
2019-01-06T10:46:52.636Z,1.00
2019-01-06T10:49:39.022Z,1.00
2019-01-06T10:52:18.196Z,1.00
2019-01-06T10:54:51.582Z,1.00
2019-01-06T10:57:40.242Z,1.00
2019-01-06T11:00:25.426Z,1.00
2019-01-06T11:03:12.091Z,1.00
2019-01-06T11:05:54.472Z,1.00
2019-01-06T11:08:41.040Z,1.00
2019-01-06T11:11:20.220Z,1.00
2019-01-06T11:13:59.293Z,1.00
2019-01-06T11:16:44.600Z,1.00
2019-01-06T11:19:22.779Z,1.00
2019-01-06T11:22:01.629Z,1.00
2019-01-06T11:24:37.739Z,1.00
2019-01-06T11:27:08.480Z,1.00
2019-01-06T11:29:38.860Z,1.00
2019-01-06T11:32:11.958Z,1.00
2019-01-06T11:34:57.122Z,1.00
2019-01-06T11:37:27.498Z,1.00
2019-01-06T11:40:03.581Z,1.00
2019-01-06T11:42:50.048Z,1.00
2019-01-06T11:45:20.470Z,1.00
2019-01-06T11:48:02.708Z,1.00
2019-01-06T11:50:39.131Z,1.00
2019-01-06T11:53:27.677Z,1.00
2019-01-06T11:56:14.195Z,1.00
2019-01-06T11:58:44.581Z,1.00
2019-01-06T12:01:30.930Z,1.00
2019-01-06T12:04:06.878Z,1.00
2019-01-06T12:06:46.113Z,1.00
2019-01-06T12:09:19.279Z,1.00
2019-01-06T12:11:52.500Z,1.00
2019-01-06T12:14:22.889Z,1.00
2019-01-06T12:16:53.382Z,1.00
2019-01-06T12:19:33.555Z,1.00
2019-01-06T12:22:15.113Z,1.00
2019-01-06T12:25:01.579Z,1.00
2019-01-06T12:27:48.197Z,1.00
2019-01-06T12:30:21.702Z,1.00
2019-01-06T12:33:08.193Z,1.00
2019-01-06T12:35:38.606Z,1.00
2019-01-06T12:38:23.888Z,1.00
2019-01-06T12:41:03.513Z,99.90
2019-01-06T12:43:49.912Z,1.00
2019-01-06T12:46:26.244Z,1.00
2019-01-06T12:49:11.484Z,1.00
2019-01-06T12:51:43.714Z,99.90
2019-01-06T12:54:14.233Z,99.90
2019-01-06T12:57:00.907Z,99.90
2019-01-06T12:59:47.692Z,1.00
2019-01-06T13:02:29.684Z,1.00
2019-01-06T13:05:05.497Z,1.00
2019-01-06T13:07:51.907Z,1.00
2019-01-06T13:10:22.316Z,1.00
2019-01-06T13:13:07.222Z,1.00
2019-01-06T13:15:37.647Z,1.00
2019-01-06T13:18:26.058Z,1.00
2019-01-06T13:20:59.440Z,1.00
2019-01-06T13:23:38.836Z,1.00
2019-01-06T13:26:11.716Z,1.00
2019-01-06T13:28:58.442Z,1.00
2019-01-06T13:31:37.654Z,1.00
2019-01-06T13:34:26.379Z,1.00
2019-01-06T13:36:56.935Z,1.00
2019-01-06T13:39:35.953Z,1.00
2019-01-06T13:42:22.538Z,1.00
2019-01-06T13:44:58.952Z,1.00
2019-01-06T13:47:45.672Z,1.00
2019-01-06T13:50:16.165Z,1.00
2019-01-06T13:52:49.307Z,1.00
2019-01-06T13:55:35.490Z,1.00
2019-01-06T13:58:20.935Z,1.00
2019-01-06T14:01:07.518Z,1.00
2019-01-06T14:03:49.617Z,1.00
2019-01-06T14:06:36.228Z,1.00
2019-01-06T14:09:10.869Z,1.00
2019-01-06T14:11:52.985Z,1.00
2019-01-06T14:14:29.165Z,1.00
2019-01-06T14:17:31.063Z,1.00
2019-01-06T14:20:04.113Z,1.00
2019-01-06T14:22:34.475Z,1.00
2019-01-06T14:25:04.877Z,1.00
2019-01-06T14:27:51.617Z,1.00
2019-01-06T14:30:25.037Z,1.00
2019-01-06T14:33:11.448Z,1.00
2019-01-06T14:35:44.867Z,1.00
2019-01-06T14:38:20.968Z,1.00
2019-01-06T14:40:51.369Z,1.00
2019-01-06T14:43:30.875Z,1.00
2019-01-06T14:46:07.246Z,1.00
2019-01-06T14:48:37.733Z,1.00
2019-01-06T14:51:24.009Z,1.00
2019-01-06T14:54:00.115Z,1.00
2019-01-06T14:56:42.515Z,1.00
2019-01-06T14:59:24.834Z,1.00
2019-01-06T15:02:11.291Z,1.00
2019-01-06T15:04:53.864Z,1.00
2019-01-06T15:07:27.354Z,1.00
2019-01-06T15:10:03.721Z,1.00
2019-01-06T15:12:50.241Z,1.00
2019-01-06T15:15:20.671Z,1.00
2019-01-06T15:17:56.454Z,1.00
2019-01-06T15:20:26.937Z,1.00
2019-01-06T15:23:11.894Z,1.00
2019-01-06T15:25:44.953Z,1.00
2019-01-06T15:28:17.997Z,1.00
2019-01-06T15:30:57.231Z,1.00
2019-01-06T15:33:30.200Z,1.00
2019-01-06T15:36:15.413Z,1.00
2019-01-06T15:38:45.843Z,1.00
2019-01-06T15:41:17.668Z,1.00
2019-01-06T15:43:48.257Z,1.00
2019-01-06T15:46:19.716Z,1.00
2019-01-06T15:49:01.844Z,1.00
2019-01-06T15:51:48.634Z,1.00
2019-01-06T15:54:26.287Z,1.00
2019-01-06T15:57:14.507Z,1.00
2019-01-06T15:59:59.961Z,1.00
2019-01-06T16:02:39.156Z,1.00
2019-01-06T16:05:17.792Z,1.00
2019-01-06T16:08:07.637Z,1.00
2019-01-06T16:10:38.039Z,1.00
2019-01-06T16:13:17.272Z,1.00
2019-01-06T16:16:03.654Z,1.00
2019-01-06T16:18:52.227Z,1.00
2019-01-06T16:21:31.566Z,1.00
2019-01-06T16:24:11.687Z,1.00
2019-01-06T16:26:47.556Z,1.00
2019-01-06T16:29:17.999Z,1.00
2019-01-06T16:31:48.425Z,1.00
2019-01-06T16:34:24.875Z,1.00
2019-01-06T16:37:04.042Z,1.00
2019-01-06T16:39:50.677Z,1.00
2019-01-06T16:42:33.238Z,1.00
2019-01-06T16:45:12.375Z,1.00
2019-01-06T16:47:48.437Z,1.00
2019-01-06T16:50:21.548Z,1.00
2019-01-06T16:53:07.078Z,1.00
2019-01-06T16:55:53.426Z,1.00
2019-01-06T16:58:26.167Z,1.00
2019-01-06T17:01:12.647Z,1.00
2019-01-06T17:03:49.096Z,1.00
2019-01-06T17:06:35.585Z,1.00
2019-01-06T17:09:10.920Z,1.00
2019-01-06T17:11:53.248Z,1.00
2019-01-06T17:14:26.284Z,1.00
2019-01-06T17:17:12.023Z,1.00
2019-01-06T17:19:45.052Z,1.00
2019-01-06T17:22:17.961Z,1.00
2019-01-06T17:24:51.273Z,1.00
2019-01-06T17:27:33.602Z,1.00
2019-01-06T17:30:20.504Z,1.00
2019-01-06T17:32:53.797Z,1.00
2019-01-06T17:35:36.228Z,1.00
2019-01-06T17:38:09.751Z,1.00
2019-01-06T17:40:49.239Z,1.00
2019-01-06T17:43:19.774Z,1.00
2019-01-06T17:46:06.275Z,1.00
2019-01-06T17:48:42.696Z,1.00
2019-01-06T17:51:16.097Z,1.00
2019-01-06T17:53:46.756Z,1.00
2019-01-06T17:56:33.609Z,5.80
2019-01-06T17:59:09.681Z,7.50
2019-01-06T18:01:42.985Z,5.50
2019-01-06T18:04:29.404Z,13.50
2019-01-06T18:07:16.023Z,17.00
2019-01-06T18:09:52.352Z,17.50
2019-01-06T18:12:25.399Z,20.00
2019-01-06T18:15:01.745Z,23.90
2019-01-06T18:17:48.159Z,21.50
2019-01-06T18:20:18.562Z,20.60
2019-01-06T18:22:51.920Z,19.60
2019-01-06T18:25:28.254Z,21.30
2019-01-06T18:28:01.555Z,21.40
2019-01-06T18:30:47.142Z,29.10
2019-01-06T18:33:23.037Z,27.60
2019-01-06T18:36:02.565Z,31.70
2019-01-06T18:38:32.986Z,34.50
2019-01-06T18:41:03.410Z,36.80
2019-01-06T18:43:36.483Z,39.20
2019-01-06T18:46:25.111Z,35.70
2019-01-06T18:49:13.606Z,38.30
2019-01-06T18:52:00.077Z,44.30
2019-01-06T18:54:46.751Z,50.40
2019-01-06T18:57:35.284Z,50.10
2019-01-06T19:00:17.169Z,50.00
2019-01-06T19:03:05.846Z,52.80
2019-01-06T19:05:54.182Z,54.40
2019-01-06T19:08:24.594Z,55.10
2019-01-06T19:11:00.816Z,57.50
2019-01-06T19:13:36.941Z,65.10
2019-01-06T19:16:07.359Z,56.70
2019-01-06T19:18:54.066Z,60.10
2019-01-06T19:21:42.616Z,54.40
2019-01-06T19:24:27.711Z,60.20
2019-01-06T19:26:58.371Z,59.70
2019-01-06T19:29:37.527Z,55.60
2019-01-06T19:32:13.771Z,57.30
2019-01-06T19:34:53.108Z,56.10
2019-01-06T19:37:21.980Z,55.80
2019-01-06T19:40:07.223Z,62.20
2019-01-06T19:42:37.714Z,61.30
2019-01-06T19:45:24.216Z,61.00
2019-01-06T19:48:07.009Z,55.40
2019-01-06T19:50:37.386Z,51.20
2019-01-06T19:53:13.445Z,54.50
2019-01-06T19:55:46.489Z,57.50
2019-01-06T19:58:32.936Z,53.80
2019-01-06T20:01:19.592Z,53.20
2019-01-06T20:04:06.393Z,55.00
2019-01-06T20:06:53.067Z,49.90
2019-01-06T20:09:23.796Z,48.00
2019-01-06T20:12:10.356Z,48.70
2019-01-06T20:14:56.561Z,47.60
2019-01-06T20:17:36.093Z,47.00
2019-01-06T20:20:23.402Z,47.80
2019-01-06T20:23:10.169Z,42.70
2019-01-06T20:25:56.520Z,51.40
2019-01-06T20:28:38.971Z,53.00
2019-01-06T20:31:18.266Z,52.10
2019-01-06T20:33:48.651Z,53.40
2019-01-06T20:36:19.041Z,55.40
2019-01-06T20:38:58.380Z,54.50
2019-01-06T20:41:44.788Z,55.80
2019-01-06T20:44:15.169Z,52.00
2019-01-06T20:46:57.341Z,54.40
2019-01-06T20:49:42.591Z,57.30
2019-01-06T20:52:29.052Z,60.50
2019-01-06T20:55:17.544Z,72.50
2019-01-06T20:57:47.995Z,71.90
2019-01-06T21:00:34.591Z,73.10
2019-01-06T21:03:20.081Z,77.30
2019-01-06T21:05:50.498Z,79.10
2019-01-06T21:08:20.909Z,82.20
2019-01-06T21:10:51.284Z,85.10
2019-01-06T21:13:24.354Z,76.90
2019-01-06T21:16:10.785Z,74.60
2019-01-06T21:18:41.197Z,77.30
2019-01-06T21:21:14.299Z,81.00
2019-01-06T21:23:59.480Z,71.50
2019-01-06T21:26:29.878Z,66.90
2019-01-06T21:29:16.293Z,64.30
2019-01-06T21:31:49.696Z,60.40
2019-01-06T21:34:23.173Z,67.90
2019-01-06T21:36:56.428Z,68.00
2019-01-06T21:39:32.773Z,63.10
2019-01-06T21:42:19.120Z,58.20
2019-01-06T21:44:49.640Z,68.40
2019-01-06T21:47:26.133Z,65.70
2019-01-06T21:50:08.580Z,57.70
2019-01-06T21:52:47.608Z,60.00
2019-01-06T21:55:33.028Z,61.60
2019-01-06T21:58:09.123Z,64.60
2019-01-06T22:00:39.539Z,62.40
2019-01-06T22:03:28.039Z,74.50
2019-01-06T22:06:14.338Z,66.50
2019-01-06T22:09:00.529Z,67.00
2019-01-06T22:11:39.756Z,65.20
2019-01-06T22:14:12.991Z,65.90
2019-01-06T22:16:59.373Z,67.40
2019-01-06T22:19:35.556Z,64.50
2019-01-06T22:22:08.996Z,71.10
2019-01-06T22:24:42.256Z,76.50
2019-01-06T22:27:12.745Z,77.60
2019-01-06T22:29:43.165Z,80.60
2019-01-06T22:32:25.356Z,81.30
2019-01-06T22:34:55.739Z,84.90
2019-01-06T22:37:42.166Z,85.30
2019-01-06T22:40:30.741Z,87.60
2019-01-06T22:43:17.497Z,86.30
2019-01-06T22:46:03.683Z,87.80
2019-01-06T22:48:43.120Z,86.20
2019-01-06T22:51:13.529Z,91.10
2019-01-06T22:53:44.145Z,90.60
2019-01-06T22:56:29.258Z,92.30
2019-01-06T22:59:11.840Z,93.80
2019-01-06T23:01:45.152Z,93.70
2019-01-06T23:04:21.731Z,95.00
2019-01-06T23:07:10.285Z,94.60
2019-01-06T23:09:40.669Z,95.30
2019-01-06T23:12:13.999Z,97.80
2019-01-06T23:15:00.468Z,96.10
2019-01-06T23:17:39.784Z,97.40
2019-01-06T23:20:10.204Z,97.60
2019-01-06T23:22:46.308Z,99.80
2019-01-06T23:25:22.767Z,99.70
2019-01-06T23:28:05.268Z,99.90
2019-01-06T23:30:35.663Z,99.80
2019-01-06T23:33:20.838Z,99.90
2019-01-06T23:35:51.366Z,99.90
2019-01-06T23:38:39.553Z,99.90
2019-01-06T23:41:15.727Z,99.90
2019-01-06T23:43:46.146Z,99.90
2019-01-06T23:46:28.338Z,99.40
2019-01-06T23:49:14.934Z,98.70
2019-01-06T23:51:48.404Z,96.60
2019-01-06T23:54:21.459Z,97.60
2019-01-06T23:56:57.841Z,98.50
2019-01-06T23:59:37.001Z,99.10
